createdAt,value
2023-05-10T00:01:01.947Z,18.00
2023-05-10T00:03:28.884Z,18.00
2023-05-10T00:05:55.824Z,18.00
2023-05-10T00:08:22.702Z,18.00
2023-05-10T00:10:50.174Z,18.00
2023-05-10T00:13:17.199Z,18.00
2023-05-10T00:15:43.951Z,18.00
2023-05-10T00:18:10.778Z,18.00
2023-05-10T00:20:37.634Z,18.00
2023-05-10T00:23:04.598Z,17.90
2023-05-10T00:25:31.444Z,17.90
2023-05-10T00:27:58.538Z,17.90
2023-05-10T00:30:25.682Z,17.90
2023-05-10T00:32:52.944Z,17.90
2023-05-10T00:35:20.002Z,18.00
2023-05-10T00:37:47.117Z,17.90
2023-05-10T00:40:14.610Z,17.90
2023-05-10T00:42:44.412Z,17.90
2023-05-10T00:45:11.820Z,17.80
2023-05-10T00:47:39.009Z,17.90
2023-05-10T00:50:07.019Z,17.90
2023-05-10T00:52:34.228Z,17.80
2023-05-10T00:55:01.420Z,17.80
2023-05-10T00:57:28.408Z,17.80
2023-05-10T00:59:55.250Z,17.80
2023-05-10T01:02:22.072Z,17.80
2023-05-10T01:04:50.417Z,17.80
2023-05-10T01:07:17.885Z,17.80
2023-05-10T01:09:44.824Z,17.80
2023-05-10T01:12:12.309Z,17.80
2023-05-10T01:14:39.216Z,17.90
2023-05-10T01:17:08.146Z,17.80
2023-05-10T01:19:37.934Z,17.90
2023-05-10T01:22:36.147Z,17.80
2023-05-10T01:25:12.780Z,17.80
2023-05-10T01:28:07.637Z,17.80
2023-05-10T01:31:16.840Z,17.80
2023-05-10T01:34:01.696Z,17.70
2023-05-10T01:36:38.170Z,17.70
2023-05-10T01:39:54.417Z,17.70
2023-05-10T01:42:29.203Z,17.70
2023-05-10T01:45:26.335Z,17.70
2023-05-10T01:48:09.217Z,17.70
2023-05-10T01:50:39.202Z,17.70
2023-05-10T01:53:09.005Z,17.70
2023-05-10T01:55:41.508Z,17.70
2023-05-10T01:58:11.294Z,17.70
2023-05-10T02:00:43.715Z,17.70
2023-05-10T02:03:12.576Z,17.70
2023-05-10T02:05:40.649Z,17.60
2023-05-10T02:08:08.624Z,17.60
2023-05-10T02:10:38.578Z,17.60
2023-05-10T02:13:08.225Z,17.60
2023-05-10T02:15:36.108Z,17.60
2023-05-10T02:18:04.598Z,17.50
2023-05-10T02:20:33.386Z,17.50
2023-05-10T02:23:01.937Z,17.60
2023-05-10T02:25:32.481Z,17.50
2023-05-10T02:28:02.733Z,17.60
2023-05-10T02:30:32.200Z,17.50
2023-05-10T02:33:00.716Z,17.40
2023-05-10T02:35:28.350Z,17.40
2023-05-10T02:37:55.743Z,17.40
2023-05-10T02:40:26.177Z,17.40
2023-05-10T02:42:57.810Z,17.40
2023-05-10T02:45:29.093Z,17.40
2023-05-10T02:47:57.314Z,17.40
2023-05-10T02:50:28.422Z,17.40
2023-05-10T02:53:00.864Z,17.30
2023-05-10T02:55:36.364Z,17.30
2023-05-10T02:58:04.704Z,17.20
2023-05-10T03:00:32.279Z,17.20
2023-05-10T03:02:59.239Z,17.20
2023-05-10T03:05:27.198Z,17.10
2023-05-10T03:07:54.636Z,17.10
2023-05-10T03:10:27.773Z,17.00
2023-05-10T03:13:25.950Z,17.00
2023-05-10T03:16:04.909Z,17.00
2023-05-10T03:18:55.650Z,17.00
2023-05-10T03:21:26.881Z,16.90
2023-05-10T03:24:04.083Z,16.90
2023-05-10T03:26:31.420Z,17.00
2023-05-10T03:29:07.403Z,16.90
2023-05-10T03:31:34.358Z,16.90
2023-05-10T03:34:01.464Z,16.90
2023-05-10T03:36:28.263Z,16.90
2023-05-10T03:38:56.194Z,16.90
2023-05-10T03:41:23.326Z,16.90
2023-05-10T03:43:50.282Z,16.90
2023-05-10T03:46:17.128Z,17.00
2023-05-10T03:48:44.924Z,17.00
2023-05-10T03:51:11.804Z,17.00
2023-05-10T03:53:40.111Z,16.90
2023-05-10T03:56:07.394Z,16.90
2023-05-10T03:58:34.272Z,16.90
2023-05-10T04:01:01.134Z,17.00
2023-05-10T04:03:28.106Z,17.00
2023-05-10T04:06:04.978Z,17.10
2023-05-10T04:08:32.501Z,17.00
2023-05-10T04:11:10.057Z,17.00
2023-05-10T04:13:36.925Z,17.10
2023-05-10T04:16:04.242Z,17.10
2023-05-10T04:18:32.110Z,17.10
2023-05-10T04:20:59.045Z,17.10
2023-05-10T04:23:25.807Z,17.10
2023-05-10T04:25:52.615Z,17.10
2023-05-10T04:28:19.472Z,17.10
2023-05-10T04:30:46.727Z,17.20
2023-05-10T04:33:13.500Z,17.20
2023-05-10T04:35:41.076Z,17.20
2023-05-10T04:38:07.933Z,17.20
2023-05-10T04:40:35.326Z,17.20
2023-05-10T04:43:02.444Z,17.20
2023-05-10T04:45:29.323Z,17.20
2023-05-10T04:47:56.395Z,17.20
2023-05-10T04:50:23.427Z,17.20
2023-05-10T04:52:50.184Z,17.20
2023-05-10T04:55:17.036Z,17.20
2023-05-10T04:57:44.029Z,17.30
2023-05-10T05:00:11.484Z,17.20
2023-05-10T05:02:38.399Z,17.20
2023-05-10T05:05:05.820Z,17.20
2023-05-10T05:07:32.866Z,17.30
2023-05-10T05:09:59.756Z,17.30
2023-05-10T05:12:26.599Z,17.30
2023-05-10T05:14:53.573Z,17.30
2023-05-10T05:17:20.460Z,17.30
2023-05-10T05:19:47.311Z,17.30
2023-05-10T05:22:14.208Z,17.30
2023-05-10T05:24:41.069Z,17.30
2023-05-10T05:27:07.926Z,17.40
2023-05-10T05:29:34.921Z,17.40
2023-05-10T05:32:01.918Z,17.40
2023-05-10T05:34:28.839Z,17.40
2023-05-10T05:36:55.668Z,17.50
2023-05-10T05:39:23.329Z,17.50
2023-05-10T05:41:50.139Z,17.50
2023-05-10T05:44:17.049Z,17.50
2023-05-10T05:46:43.873Z,17.60
2023-05-10T05:49:10.884Z,17.60
2023-05-10T05:51:37.662Z,17.60
2023-05-10T05:54:05.310Z,17.70
2023-05-10T05:56:32.117Z,17.70
2023-05-10T05:58:58.914Z,17.70
2023-05-10T06:01:25.844Z,17.60
2023-05-10T06:03:53.381Z,17.60
2023-05-10T06:06:20.686Z,17.60
2023-05-10T06:08:47.535Z,17.50
2023-05-10T06:11:14.352Z,17.60
2023-05-10T06:13:41.262Z,17.50
2023-05-10T06:16:08.172Z,17.50
2023-05-10T06:18:35.481Z,17.50
2023-05-10T06:21:02.608Z,17.50
2023-05-10T06:23:29.795Z,17.50
2023-05-10T06:25:56.611Z,17.50
2023-05-10T06:28:23.452Z,17.50
2023-05-10T06:30:50.337Z,17.50
2023-05-10T06:33:17.080Z,17.50
2023-05-10T06:35:43.920Z,17.40
2023-05-10T06:38:10.729Z,17.30
2023-05-10T06:40:37.484Z,17.30
2023-05-10T06:43:04.323Z,17.30
2023-05-10T06:45:31.133Z,17.30
2023-05-10T06:47:58.012Z,17.30
2023-05-10T06:50:24.836Z,17.30
2023-05-10T06:52:53.080Z,17.30
2023-05-10T06:55:20.124Z,17.40
2023-05-10T06:57:47.076Z,17.40
2023-05-10T07:00:14.722Z,17.60
2023-05-10T07:02:41.668Z,17.60
2023-05-10T07:05:09.550Z,17.70
2023-05-10T07:07:36.423Z,17.80
2023-05-10T07:10:03.852Z,17.80
2023-05-10T07:12:30.678Z,17.80
2023-05-10T07:14:57.765Z,17.80
2023-05-10T07:17:24.689Z,17.80
2023-05-10T07:19:51.581Z,17.70
2023-05-10T07:22:18.492Z,17.70
2023-05-10T07:24:45.674Z,17.70
2023-05-10T07:27:13.768Z,17.80
2023-05-10T07:29:40.519Z,17.80
2023-05-10T07:32:07.557Z,17.80
2023-05-10T07:34:34.427Z,17.80
2023-05-10T07:37:01.922Z,17.80
2023-05-10T07:39:28.981Z,17.90
2023-05-10T07:41:56.542Z,17.90
2023-05-10T07:44:24.027Z,17.90
2023-05-10T07:46:51.494Z,17.90
2023-05-10T07:49:18.373Z,17.90
2023-05-10T07:51:45.225Z,18.00
2023-05-10T07:54:12.314Z,18.00
2023-05-10T07:56:40.635Z,18.00
2023-05-10T07:59:09.287Z,18.10
2023-05-10T08:01:37.068Z,18.10
2023-05-10T08:04:04.063Z,18.10
2023-05-10T08:06:31.432Z,18.10
2023-05-10T08:08:58.564Z,18.10
2023-05-10T08:11:25.862Z,18.00
2023-05-10T08:13:54.053Z,18.00
2023-05-10T08:16:21.303Z,18.00
2023-05-10T08:18:48.677Z,18.10
2023-05-10T08:21:16.431Z,18.00
2023-05-10T08:23:44.984Z,18.10
2023-05-10T08:26:12.522Z,18.10
2023-05-10T08:28:39.427Z,18.20
2023-05-10T08:31:06.741Z,18.20
2023-05-10T08:33:33.856Z,18.30
2023-05-10T08:36:00.768Z,18.30
2023-05-10T08:38:27.547Z,18.30
2023-05-10T08:40:59.931Z,18.40
2023-05-10T08:43:31.132Z,18.40
2023-05-10T08:46:01.701Z,18.50
2023-05-10T08:48:30.801Z,18.40
2023-05-10T08:51:00.964Z,18.50
2023-05-10T08:53:29.730Z,18.40
2023-05-10T08:55:56.736Z,18.40
2023-05-10T08:58:23.748Z,18.40
2023-05-10T09:00:53.862Z,18.30
2023-05-10T09:03:20.823Z,18.20
2023-05-10T09:05:48.554Z,18.10
2023-05-10T09:08:17.415Z,18.10
2023-05-10T09:10:45.476Z,18.00
2023-05-10T09:13:12.987Z,18.00
2023-05-10T09:15:39.881Z,18.10
2023-05-10T09:18:06.934Z,18.20
2023-05-10T09:20:33.877Z,18.30
2023-05-10T09:23:00.850Z,18.30
2023-05-10T09:25:28.089Z,18.50
2023-05-10T09:27:55.741Z,18.50
2023-05-10T09:30:26.612Z,18.60
2023-05-10T09:32:54.111Z,18.70
2023-05-10T09:35:25.079Z,18.80
2023-05-10T09:37:55.207Z,18.80
2023-05-10T09:40:25.085Z,18.90
2023-05-10T09:42:56.380Z,19.10
2023-05-10T09:45:24.623Z,19.30
2023-05-10T09:47:51.712Z,19.50
2023-05-10T09:50:19.715Z,19.60
2023-05-10T09:52:52.188Z,19.70
2023-05-10T09:55:24.507Z,19.70
2023-05-10T09:58:01.077Z,19.70
2023-05-10T10:00:29.086Z,19.70
2023-05-10T10:03:00.592Z,19.70
2023-05-10T10:05:35.297Z,19.70
2023-05-10T10:08:07.162Z,19.70
2023-05-10T10:10:34.859Z,19.60
2023-05-10T10:13:02.390Z,19.70
2023-05-10T10:15:29.260Z,19.70
2023-05-10T10:17:56.192Z,19.80
2023-05-10T10:20:23.865Z,20.00
2023-05-10T10:22:50.716Z,20.20
2023-05-10T10:25:19.884Z,20.30
2023-05-10T10:27:52.504Z,20.40
2023-05-10T10:30:40.533Z,20.40
2023-05-10T10:33:34.843Z,20.40
2023-05-10T10:36:04.261Z,20.30
2023-05-10T10:39:01.601Z,20.20
2023-05-10T10:41:31.210Z,20.10
2023-05-10T10:44:26.218Z,20.00
2023-05-10T10:47:10.239Z,19.90
2023-05-10T10:49:45.592Z,19.80
2023-05-10T10:52:29.596Z,19.70
2023-05-10T10:55:10.413Z,19.70
2023-05-10T10:58:05.156Z,19.70
2023-05-10T11:00:33.949Z,19.70
2023-05-10T11:03:17.983Z,19.70
2023-05-10T11:05:49.399Z,19.80
2023-05-10T11:08:34.013Z,19.80
2023-05-10T11:11:01.862Z,19.90
2023-05-10T11:13:33.960Z,19.90
2023-05-10T11:16:11.774Z,19.80
2023-05-10T11:18:39.029Z,19.80
2023-05-10T11:21:06.319Z,19.80
2023-05-10T11:23:48.959Z,19.70
2023-05-10T11:26:15.836Z,19.80
2023-05-10T11:28:46.570Z,19.70
2023-05-10T11:31:18.462Z,19.80
2023-05-10T11:33:49.305Z,19.90
2023-05-10T11:36:18.078Z,20.00
2023-05-10T11:38:45.264Z,20.30
2023-05-10T11:41:13.288Z,20.50
2023-05-10T11:43:41.199Z,20.80
2023-05-10T11:46:12.512Z,21.00
2023-05-10T11:48:43.777Z,21.20
2023-05-10T11:51:11.962Z,21.40
2023-05-10T11:53:39.213Z,21.40
2023-05-10T11:56:10.803Z,21.50
2023-05-10T11:58:40.898Z,21.50
2023-05-10T12:01:08.922Z,21.40
2023-05-10T12:03:36.834Z,21.40
2023-05-10T12:06:04.208Z,21.30
2023-05-10T12:08:31.955Z,21.20
2023-05-10T12:11:11.395Z,21.20
2023-05-10T12:13:43.202Z,21.10
2023-05-10T12:16:30.531Z,21.00
2023-05-10T12:18:59.439Z,20.90
2023-05-10T12:21:27.421Z,20.90
2023-05-10T12:23:59.729Z,20.80
2023-05-10T12:26:30.189Z,20.80
2023-05-10T12:29:20.000Z,20.70
2023-05-10T12:32:00.933Z,20.80
2023-05-10T12:34:38.108Z,20.90
2023-05-10T12:37:05.410Z,21.00
2023-05-10T12:39:43.557Z,20.90
2023-05-10T12:42:11.269Z,20.90
2023-05-10T12:44:38.059Z,21.10
2023-05-10T12:47:04.871Z,21.20
2023-05-10T12:49:31.844Z,21.10
2023-05-10T12:51:58.698Z,21.00
2023-05-10T12:54:25.705Z,20.90
2023-05-10T12:56:52.471Z,20.80
2023-05-10T12:59:19.241Z,20.70
2023-05-10T13:01:46.141Z,20.70
2023-05-10T13:04:13.100Z,20.50
2023-05-10T13:06:40.090Z,20.30
2023-05-10T13:09:07.032Z,20.20
2023-05-10T13:11:33.986Z,20.10
2023-05-10T13:14:01.194Z,19.90
2023-05-10T13:16:28.268Z,19.80
2023-05-10T13:18:55.096Z,19.70
2023-05-10T13:21:22.005Z,19.60
2023-05-10T13:23:48.832Z,19.60
2023-05-10T13:26:15.829Z,19.50
2023-05-10T13:28:42.682Z,19.40
2023-05-10T13:31:09.524Z,19.30
2023-05-10T13:33:36.338Z,19.20
2023-05-10T13:36:03.338Z,19.10
2023-05-10T13:38:30.144Z,19.10
2023-05-10T13:40:56.972Z,19.00
2023-05-10T13:43:24.574Z,19.00
2023-05-10T13:45:51.379Z,19.00
2023-05-10T13:48:18.172Z,18.90
2023-05-10T13:50:45.008Z,18.90
2023-05-10T13:53:12.097Z,18.90
2023-05-10T13:55:38.936Z,18.90
2023-05-10T13:58:05.949Z,18.90
2023-05-10T14:00:32.901Z,18.80
2023-05-10T14:02:59.837Z,18.80
2023-05-10T14:05:27.029Z,18.80
2023-05-10T14:07:54.655Z,18.80
2023-05-10T14:10:21.532Z,18.90
2023-05-10T14:12:48.708Z,18.90
2023-05-10T14:15:15.889Z,18.90
2023-05-10T14:17:43.035Z,18.90
2023-05-10T14:20:10.328Z,18.90
2023-05-10T14:22:37.143Z,18.90
2023-05-10T14:25:04.331Z,18.90
2023-05-10T14:27:31.441Z,18.90
2023-05-10T14:29:58.357Z,18.90
2023-05-10T14:32:25.209Z,18.90
2023-05-10T14:34:52.035Z,18.90
2023-05-10T14:37:18.806Z,19.00
2023-05-10T14:39:45.670Z,19.00
2023-05-10T14:42:13.103Z,19.00
2023-05-10T14:44:40.653Z,19.00
2023-05-10T14:47:07.820Z,18.90
2023-05-10T14:49:36.430Z,19.00
2023-05-10T14:52:04.067Z,19.00
2023-05-10T14:54:31.007Z,19.00
2023-05-10T14:56:57.758Z,19.10
2023-05-10T14:59:24.618Z,19.10
2023-05-10T15:01:51.793Z,19.10
2023-05-10T15:04:19.094Z,19.10
2023-05-10T15:06:46.388Z,19.20
2023-05-10T15:09:13.167Z,19.20
2023-05-10T15:11:40.056Z,19.30
2023-05-10T15:14:07.194Z,19.40
2023-05-10T15:16:36.063Z,19.50
2023-05-10T15:19:03.396Z,19.60
2023-05-10T15:21:35.922Z,19.70
2023-05-10T15:24:02.825Z,19.70
2023-05-10T15:26:29.691Z,19.70
2023-05-10T15:28:56.422Z,19.60
2023-05-10T15:31:23.370Z,19.50
2023-05-10T15:33:50.191Z,19.50
2023-05-10T15:36:18.654Z,19.60
2023-05-10T15:38:45.516Z,19.60
2023-05-10T15:41:12.753Z,19.70
2023-05-10T15:43:39.522Z,19.80
2023-05-10T15:46:07.057Z,19.90
2023-05-10T15:48:34.292Z,20.00
2023-05-10T15:51:01.158Z,20.00
2023-05-10T15:53:27.985Z,20.10
2023-05-10T15:55:55.145Z,20.10
2023-05-10T15:58:21.911Z,20.10
2023-05-10T16:00:48.817Z,20.20
2023-05-10T16:03:16.278Z,20.20
2023-05-10T16:05:43.199Z,20.20
2023-05-10T16:08:10.000Z,20.20
2023-05-10T16:10:38.271Z,20.20
2023-05-10T16:13:05.198Z,20.10
2023-05-10T16:15:32.269Z,20.00
2023-05-10T16:17:59.289Z,20.00
2023-05-10T16:20:27.049Z,19.90
2023-05-10T16:22:53.948Z,19.90
2023-05-10T16:25:21.265Z,19.90
2023-05-10T16:27:48.091Z,19.90
2023-05-10T16:30:15.008Z,19.80
2023-05-10T16:32:41.886Z,19.80
2023-05-10T16:35:09.186Z,19.80
2023-05-10T16:37:36.100Z,19.70
2023-05-10T16:40:03.127Z,19.70
2023-05-10T16:42:30.427Z,19.70
2023-05-10T16:44:57.425Z,19.70
2023-05-10T16:47:26.693Z,19.80
2023-05-10T16:49:53.851Z,19.80
2023-05-10T16:52:20.680Z,19.90
2023-05-10T16:54:47.580Z,20.00
2023-05-10T16:57:14.364Z,20.10
2023-05-10T16:59:41.406Z,20.10
2023-05-10T17:02:08.389Z,20.20
2023-05-10T17:04:35.261Z,20.30
2023-05-10T17:07:02.272Z,20.40
2023-05-10T17:09:29.302Z,20.40
2023-05-10T17:11:56.145Z,20.40
2023-05-10T17:14:23.306Z,20.40
2023-05-10T17:16:52.677Z,20.40
2023-05-10T17:19:19.766Z,20.30
2023-05-10T17:21:46.652Z,20.30
2023-05-10T17:24:14.021Z,20.30
2023-05-10T17:26:41.566Z,20.20
2023-05-10T17:29:08.564Z,20.20
2023-05-10T17:31:35.474Z,20.20
2023-05-10T17:34:05.393Z,20.30
2023-05-10T17:36:33.366Z,20.30
2023-05-10T17:39:00.998Z,20.30
2023-05-10T17:41:27.865Z,20.30
2023-05-10T17:43:55.198Z,20.20
2023-05-10T17:46:22.283Z,20.20
2023-05-10T17:48:49.364Z,20.20
2023-05-10T17:51:16.204Z,20.20
2023-05-10T17:53:43.228Z,20.10
2023-05-10T17:56:10.014Z,20.20
2023-05-10T17:58:38.438Z,20.20
2023-05-10T18:01:05.701Z,20.10
2023-05-10T18:03:32.921Z,20.10
2023-05-10T18:06:00.397Z,20.00
2023-05-10T18:08:28.693Z,19.90
2023-05-10T18:10:55.652Z,19.90
2023-05-10T18:13:22.447Z,19.80
2023-05-10T18:15:49.260Z,19.90
2023-05-10T18:18:17.088Z,19.80
2023-05-10T18:20:45.069Z,19.90
2023-05-10T18:23:12.173Z,19.90
2023-05-10T18:25:39.073Z,19.90
2023-05-10T18:28:07.879Z,19.90
2023-05-10T18:30:34.742Z,19.90
2023-05-10T18:33:01.628Z,19.80
2023-05-10T18:35:28.571Z,19.80
2023-05-10T18:37:56.171Z,19.70
2023-05-10T18:40:22.984Z,19.70
2023-05-10T18:42:50.575Z,19.70
2023-05-10T18:45:17.797Z,19.60
2023-05-10T18:47:44.911Z,19.60
2023-05-10T18:50:12.808Z,19.60
2023-05-10T18:52:39.620Z,19.50
2023-05-10T18:55:07.259Z,19.50
2023-05-10T18:57:40.892Z,19.50
2023-05-10T19:00:10.335Z,19.40
2023-05-10T19:02:40.747Z,19.40
2023-05-10T19:05:08.662Z,19.30
2023-05-10T19:07:35.496Z,19.30
2023-05-10T19:10:03.053Z,19.30
2023-05-10T19:12:30.557Z,19.30
2023-05-10T19:14:57.374Z,19.20
2023-05-10T19:17:24.394Z,19.20
2023-05-10T19:19:51.243Z,19.10
2023-05-10T19:22:28.267Z,19.20
2023-05-10T19:25:03.653Z,19.20
2023-05-10T19:27:30.949Z,19.10
2023-05-10T19:29:57.975Z,19.10
2023-05-10T19:32:25.325Z,19.20
2023-05-10T19:34:52.251Z,19.10
2023-05-10T19:37:19.046Z,19.20
2023-05-10T19:39:45.986Z,19.20
2023-05-10T19:42:13.045Z,19.20
2023-05-10T19:44:40.034Z,19.20
2023-05-10T19:47:08.671Z,19.20
2023-05-10T19:49:38.753Z,19.20
2023-05-10T19:52:07.832Z,19.10
2023-05-10T19:54:34.691Z,19.10
2023-05-10T19:57:01.550Z,19.10
2023-05-10T19:59:28.317Z,19.10
2023-05-10T20:01:55.087Z,19.10
2023-05-10T20:04:22.535Z,19.00
2023-05-10T20:06:49.404Z,19.00
2023-05-10T20:09:16.513Z,19.00
2023-05-10T20:11:43.469Z,19.00
2023-05-10T20:14:10.404Z,19.00
2023-05-10T20:16:37.305Z,19.00
2023-05-10T20:19:04.659Z,19.00
2023-05-10T20:21:33.481Z,19.00
2023-05-10T20:24:00.338Z,19.00
2023-05-10T20:26:27.201Z,19.00
2023-05-10T20:28:54.079Z,19.00
2023-05-10T20:31:20.885Z,19.00
2023-05-10T20:33:47.821Z,19.00
2023-05-10T20:36:14.989Z,19.00
2023-05-10T20:38:41.921Z,19.00
2023-05-10T20:41:08.785Z,19.00
2023-05-10T20:43:35.991Z,19.00
2023-05-10T20:46:05.641Z,19.00
2023-05-10T20:48:33.080Z,19.00
2023-05-10T20:51:02.464Z,19.00
2023-05-10T20:53:29.949Z,19.00
2023-05-10T20:55:56.859Z,19.00
2023-05-10T20:58:23.794Z,19.00
2023-05-10T21:00:50.709Z,19.00
2023-05-10T21:03:17.600Z,19.00
2023-05-10T21:05:44.388Z,19.00
2023-05-10T21:08:11.215Z,19.00
2023-05-10T21:10:38.028Z,19.00
2023-05-10T21:13:04.959Z,19.00
2023-05-10T21:15:31.786Z,19.00
2023-05-10T21:17:58.697Z,19.00
2023-05-10T21:20:25.750Z,19.00
2023-05-10T21:22:52.523Z,19.10
2023-05-10T21:25:19.271Z,19.00
2023-05-10T21:27:46.028Z,19.00
2023-05-10T21:30:12.974Z,19.00
2023-05-10T21:32:39.881Z,19.00
2023-05-10T21:35:07.378Z,19.00
2023-05-10T21:37:34.352Z,19.00
2023-05-10T21:40:01.154Z,18.90
2023-05-10T21:42:28.059Z,18.90
2023-05-10T21:44:55.073Z,19.00
2023-05-10T21:47:22.408Z,18.90
2023-05-10T21:49:50.480Z,18.90
2023-05-10T21:52:17.393Z,18.80
2023-05-10T21:54:44.183Z,18.80
2023-05-10T21:57:11.121Z,18.80
2023-05-10T21:59:37.876Z,18.80
2023-05-10T22:02:04.885Z,18.80
2023-05-10T22:04:31.821Z,18.80
2023-05-10T22:06:58.562Z,18.80
2023-05-10T22:09:25.456Z,18.80
2023-05-10T22:11:52.254Z,18.70
2023-05-10T22:14:19.045Z,18.70
2023-05-10T22:16:46.009Z,18.70
2023-05-10T22:19:12.904Z,18.60
2023-05-10T22:21:39.858Z,18.60
2023-05-10T22:24:06.765Z,18.60
2023-05-10T22:26:33.533Z,18.60
2023-05-10T22:29:00.301Z,18.50
2023-05-10T22:31:27.349Z,18.60
2023-05-10T22:33:54.224Z,18.60
2023-05-10T22:36:21.038Z,18.50
2023-05-10T22:38:47.857Z,18.60
2023-05-10T22:41:14.717Z,18.50
2023-05-10T22:43:41.958Z,18.60
2023-05-10T22:46:08.778Z,18.60
2023-05-10T22:48:36.020Z,18.50
2023-05-10T22:51:03.050Z,18.50
2023-05-10T22:53:29.908Z,18.50
2023-05-10T22:55:56.790Z,18.50
2023-05-10T22:58:23.649Z,18.50
2023-05-10T23:00:50.506Z,18.50
2023-05-10T23:03:18.122Z,18.50
2023-05-10T23:05:44.855Z,18.50
2023-05-10T23:08:11.709Z,18.50
2023-05-10T23:10:39.140Z,18.50
2023-05-10T23:13:06.323Z,18.40
2023-05-10T23:15:33.325Z,18.40
2023-05-10T23:18:04.496Z,18.50
2023-05-10T23:20:31.507Z,18.40
2023-05-10T23:22:58.459Z,18.40
2023-05-10T23:25:25.641Z,18.40
2023-05-10T23:27:52.408Z,18.40
2023-05-10T23:30:19.625Z,18.40
2023-05-10T23:32:46.610Z,18.40
2023-05-10T23:35:13.362Z,18.40
2023-05-10T23:37:41.008Z,18.30
2023-05-10T23:40:08.391Z,18.30
2023-05-10T23:42:35.307Z,18.30
2023-05-10T23:45:02.789Z,18.30
2023-05-10T23:47:29.657Z,18.30
2023-05-10T23:49:57.052Z,18.30
2023-05-10T23:52:25.188Z,18.30
2023-05-10T23:54:52.599Z,18.30
2023-05-10T23:57:19.811Z,18.30
2023-05-10T23:59:46.702Z,18.30
